sensor_id;sensor_type;location;lat;lon;timestamp;P1;durP1;ratioP1;P2;durP2;ratioP2
41141;SDS011;63666;52.284;20.890;2023-05-29T00:00:09;4.10;;;1.80;;
41141;SDS011;63666;52.284;20.890;2023-05-29T00:03:04;4.30;;;1.80;;
41141;SDS011;63666;52.284;20.890;2023-05-29T00:05:40;4.20;;;1.80;;
41141;SDS011;63666;52.284;20.890;2023-05-29T00:08:16;4.30;;;2.10;;
41141;SDS011;63666;52.284;20.890;2023-05-29T00:10:52;4.70;;;1.90;;
41141;SDS011;63666;52.284;20.890;2023-05-29T00:13:26;4.10;;;1.80;;
41141;SDS011;63666;52.284;20.890;2023-05-29T00:16:02;3.80;;;1.70;;
41141;SDS011;63666;52.284;20.890;2023-05-29T00:18:36;4.20;;;1.90;;
41141;SDS011;63666;52.284;20.890;2023-05-29T00:21:16;4.30;;;2.00;;
41141;SDS011;63666;52.284;20.890;2023-05-29T00:23:54;4.60;;;2.00;;
41141;SDS011;63666;52.284;20.890;2023-05-29T00:26:31;4.60;;;1.80;;
41141;SDS011;63666;52.284;20.890;2023-05-29T00:29:06;4.20;;;2.10;;
41141;SDS011;63666;52.284;20.890;2023-05-29T00:31:41;4.20;;;1.90;;
41141;SDS011;63666;52.284;20.890;2023-05-29T00:34:17;4.50;;;1.90;;
41141;SDS011;63666;52.284;20.890;2023-05-29T00:36:54;4.20;;;2.10;;
41141;SDS011;63666;52.284;20.890;2023-05-29T00:39:31;4.00;;;1.80;;
41141;SDS011;63666;52.284;20.890;2023-05-29T00:42:10;4.00;;;2.00;;
41141;SDS011;63666;52.284;20.890;2023-05-29T00:44:47;4.20;;;1.90;;
41141;SDS011;63666;52.284;20.890;2023-05-29T00:47:23;4.00;;;1.80;;
41141;SDS011;63666;52.284;20.890;2023-05-29T00:50:00;4.00;;;2.00;;
41141;SDS011;63666;52.284;20.890;2023-05-29T00:52:36;4.90;;;2.00;;
41141;SDS011;63666;52.284;20.890;2023-05-29T00:55:15;4.30;;;2.00;;
41141;SDS011;63666;52.284;20.890;2023-05-29T00:57:51;4.20;;;1.80;;
41141;SDS011;63666;52.284;20.890;2023-05-29T01:00:32;4.00;;;1.80;;
41141;SDS011;63666;52.284;20.890;2023-05-29T01:03:14;3.90;;;2.00;;
41141;SDS011;63666;52.284;20.890;2023-05-29T01:05:52;4.50;;;2.10;;
41141;SDS011;63666;52.284;20.890;2023-05-29T01:08:27;4.10;;;1.90;;
41141;SDS011;63666;52.284;20.890;2023-05-29T01:11:08;3.70;;;1.70;;
41141;SDS011;63666;52.284;20.890;2023-05-29T01:13:46;4.60;;;1.90;;
41141;SDS011;63666;52.284;20.890;2023-05-29T01:16:24;4.00;;;1.90;;
41141;SDS011;63666;52.284;20.890;2023-05-29T01:22:11;4.40;;;1.90;;
41141;SDS011;63666;52.284;20.890;2023-05-29T01:24:52;4.10;;;2.20;;
41141;SDS011;63666;52.284;20.890;2023-05-29T01:27:31;4.10;;;2.00;;
41141;SDS011;63666;52.284;20.890;2023-05-29T01:30:09;4.00;;;2.10;;
41141;SDS011;63666;52.284;20.890;2023-05-29T01:32:47;4.70;;;2.10;;
41141;SDS011;63666;52.284;20.890;2023-05-29T01:35:30;4.30;;;1.70;;
41141;SDS011;63666;52.284;20.890;2023-05-29T01:38:04;4.10;;;1.90;;
41141;SDS011;63666;52.284;20.890;2023-05-29T01:40:41;4.10;;;2.00;;
41141;SDS011;63666;52.284;20.890;2023-05-29T01:43:16;4.00;;;1.80;;
41141;SDS011;63666;52.284;20.890;2023-05-29T01:45:51;4.50;;;2.00;;
41141;SDS011;63666;52.284;20.890;2023-05-29T01:48:27;3.90;;;1.90;;
41141;SDS011;63666;52.284;20.890;2023-05-29T01:51:03;4.10;;;2.00;;
41141;SDS011;63666;52.284;20.890;2023-05-29T01:53:41;3.90;;;1.80;;
41141;SDS011;63666;52.284;20.890;2023-05-29T01:56:15;4.00;;;1.90;;
41141;SDS011;63666;52.284;20.890;2023-05-29T01:58:53;4.20;;;1.90;;
41141;SDS011;63666;52.284;20.890;2023-05-29T02:01:31;3.80;;;2.10;;
41141;SDS011;63666;52.284;20.890;2023-05-29T02:04:05;4.00;;;1.90;;
41141;SDS011;63666;52.284;20.890;2023-05-29T02:06:43;4.00;;;2.00;;
41141;SDS011;63666;52.284;20.890;2023-05-29T02:09:19;3.70;;;1.80;;
41141;SDS011;63666;52.284;20.890;2023-05-29T02:11:54;4.00;;;1.90;;
41141;SDS011;63666;52.284;20.890;2023-05-29T02:14:28;4.30;;;2.00;;
41141;SDS011;63666;52.284;20.890;2023-05-29T02:17:04;4.70;;;2.10;;
41141;SDS011;63666;52.284;20.890;2023-05-29T02:19:41;4.20;;;2.00;;
41141;SDS011;63666;52.284;20.890;2023-05-29T02:22:24;4.10;;;1.90;;
41141;SDS011;63666;52.284;20.890;2023-05-29T02:25:02;3.90;;;1.90;;
41141;SDS011;63666;52.284;20.890;2023-05-29T02:27:38;4.50;;;2.00;;
41141;SDS011;63666;52.284;20.890;2023-05-29T02:30:13;4.70;;;2.10;;
41141;SDS011;63666;52.284;20.890;2023-05-29T02:32:48;4.10;;;1.80;;
41141;SDS011;63666;52.284;20.890;2023-05-29T02:35:25;3.90;;;1.80;;
41141;SDS011;63666;52.284;20.890;2023-05-29T02:38:02;3.90;;;2.00;;
41141;SDS011;63666;52.284;20.890;2023-05-29T02:40:39;3.80;;;1.90;;
41141;SDS011;63666;52.284;20.890;2023-05-29T02:43:15;3.70;;;1.80;;
41141;SDS011;63666;52.284;20.890;2023-05-29T02:45:50;3.70;;;1.80;;
41141;SDS011;63666;52.284;20.890;2023-05-29T02:48:24;4.00;;;2.00;;
41141;SDS011;63666;52.284;20.890;2023-05-29T02:51:00;4.10;;;2.00;;
41141;SDS011;63666;52.284;20.890;2023-05-29T02:53:35;4.00;;;2.00;;
41141;SDS011;63666;52.284;20.890;2023-05-29T02:56:12;4.30;;;2.10;;
41141;SDS011;63666;52.284;20.890;2023-05-29T02:58:49;3.70;;;2.00;;
41141;SDS011;63666;52.284;20.890;2023-05-29T03:01:23;3.90;;;2.00;;
41141;SDS011;63666;52.284;20.890;2023-05-29T03:03:58;4.10;;;2.10;;
41141;SDS011;63666;52.284;20.890;2023-05-29T03:06:34;4.00;;;1.90;;
41141;SDS011;63666;52.284;20.890;2023-05-29T03:09:09;3.90;;;1.90;;
41141;SDS011;63666;52.284;20.890;2023-05-29T03:11:46;4.10;;;2.10;;
41141;SDS011;63666;52.284;20.890;2023-05-29T03:14:25;4.20;;;1.90;;
41141;SDS011;63666;52.284;20.890;2023-05-29T03:17:03;3.80;;;1.80;;
41141;SDS011;63666;52.284;20.890;2023-05-29T03:19:37;3.90;;;2.00;;
41141;SDS011;63666;52.284;20.890;2023-05-29T03:22:15;4.60;;;2.00;;
41141;SDS011;63666;52.284;20.890;2023-05-29T03:24:52;4.20;;;2.00;;
41141;SDS011;63666;52.284;20.890;2023-05-29T03:27:27;4.10;;;2.00;;
41141;SDS011;63666;52.284;20.890;2023-05-29T03:30:01;4.60;;;2.10;;
41141;SDS011;63666;52.284;20.890;2023-05-29T03:32:37;4.30;;;2.20;;
41141;SDS011;63666;52.284;20.890;2023-05-29T03:35:14;4.70;;;2.30;;
41141;SDS011;63666;52.284;20.890;2023-05-29T03:37:50;4.70;;;2.00;;
41141;SDS011;63666;52.284;20.890;2023-05-29T03:40:25;4.30;;;2.20;;
41141;SDS011;63666;52.284;20.890;2023-05-29T03:42:59;4.10;;;2.10;;
41141;SDS011;63666;52.284;20.890;2023-05-29T03:45:34;4.20;;;2.20;;
41141;SDS011;63666;52.284;20.890;2023-05-29T03:48:08;3.90;;;2.00;;
41141;SDS011;63666;52.284;20.890;2023-05-29T03:50:43;4.30;;;2.20;;
41141;SDS011;63666;52.284;20.890;2023-05-29T03:53:17;4.10;;;2.00;;
41141;SDS011;63666;52.284;20.890;2023-05-29T03:55:52;4.20;;;2.10;;
41141;SDS011;63666;52.284;20.890;2023-05-29T03:58:29;4.20;;;2.10;;
41141;SDS011;63666;52.284;20.890;2023-05-29T04:01:03;4.00;;;1.90;;
41141;SDS011;63666;52.284;20.890;2023-05-29T04:03:37;4.30;;;2.10;;
41141;SDS011;63666;52.284;20.890;2023-05-29T04:06:13;4.30;;;2.00;;
41141;SDS011;63666;52.284;20.890;2023-05-29T04:08:48;4.10;;;2.00;;
41141;SDS011;63666;52.284;20.890;2023-05-29T04:11:23;5.10;;;2.20;;
41141;SDS011;63666;52.284;20.890;2023-05-29T04:14:18;4.60;;;2.00;;
41141;SDS011;63666;52.284;20.890;2023-05-29T04:17:12;5.60;;;2.50;;
41141;SDS011;63666;52.284;20.890;2023-05-29T04:19:47;5.60;;;2.10;;
41141;SDS011;63666;52.284;20.890;2023-05-29T04:22:26;5.80;;;2.00;;
41141;SDS011;63666;52.284;20.890;2023-05-29T04:25:01;4.50;;;2.20;;
41141;SDS011;63666;52.284;20.890;2023-05-29T04:27:35;5.10;;;2.40;;
41141;SDS011;63666;52.284;20.890;2023-05-29T04:30:11;5.30;;;2.30;;
41141;SDS011;63666;52.284;20.890;2023-05-29T04:32:46;6.00;;;2.60;;
41141;SDS011;63666;52.284;20.890;2023-05-29T04:35:22;5.80;;;2.30;;
41141;SDS011;63666;52.284;20.890;2023-05-29T04:37:59;5.50;;;2.30;;
41141;SDS011;63666;52.284;20.890;2023-05-29T04:40:33;5.10;;;2.10;;
41141;SDS011;63666;52.284;20.890;2023-05-29T04:43:11;5.80;;;2.40;;
41141;SDS011;63666;52.284;20.890;2023-05-29T04:45:47;4.70;;;2.30;;
41141;SDS011;63666;52.284;20.890;2023-05-29T04:48:22;5.80;;;2.40;;
41141;SDS011;63666;52.284;20.890;2023-05-29T04:50:57;5.40;;;2.60;;
41141;SDS011;63666;52.284;20.890;2023-05-29T04:53:32;5.20;;;2.60;;
41141;SDS011;63666;52.284;20.890;2023-05-29T04:56:08;6.80;;;2.80;;
41141;SDS011;63666;52.284;20.890;2023-05-29T04:58:43;6.40;;;2.90;;
41141;SDS011;63666;52.284;20.890;2023-05-29T05:01:18;7.30;;;3.10;;
41141;SDS011;63666;52.284;20.890;2023-05-29T05:03:56;5.30;;;2.80;;
41141;SDS011;63666;52.284;20.890;2023-05-29T05:06:32;5.70;;;2.90;;
41141;SDS011;63666;52.284;20.890;2023-05-29T05:09:06;6.10;;;3.30;;
41141;SDS011;63666;52.284;20.890;2023-05-29T05:11:45;6.60;;;3.10;;
41141;SDS011;63666;52.284;20.890;2023-05-29T05:14:22;6.40;;;3.00;;
41141;SDS011;63666;52.284;20.890;2023-05-29T05:17:00;6.70;;;3.30;;
41141;SDS011;63666;52.284;20.890;2023-05-29T05:19:34;6.90;;;3.60;;
41141;SDS011;63666;52.284;20.890;2023-05-29T05:22:09;5.90;;;3.20;;
41141;SDS011;63666;52.284;20.890;2023-05-29T05:24:47;7.00;;;4.10;;
41141;SDS011;63666;52.284;20.890;2023-05-29T05:27:24;7.90;;;3.90;;
41141;SDS011;63666;52.284;20.890;2023-05-29T05:30:02;8.10;;;4.00;;
41141;SDS011;63666;52.284;20.890;2023-05-29T05:32:38;8.20;;;3.90;;
41141;SDS011;63666;52.284;20.890;2023-05-29T05:35:16;6.60;;;3.60;;
41141;SDS011;63666;52.284;20.890;2023-05-29T05:37:51;7.60;;;3.60;;
41141;SDS011;63666;52.284;20.890;2023-05-29T05:40:33;7.00;;;3.50;;
41141;SDS011;63666;52.284;20.890;2023-05-29T05:43:09;7.50;;;3.60;;
41141;SDS011;63666;52.284;20.890;2023-05-29T05:45:48;7.20;;;3.30;;
41141;SDS011;63666;52.284;20.890;2023-05-29T05:48:25;6.90;;;3.00;;
41141;SDS011;63666;52.284;20.890;2023-05-29T05:51:01;7.70;;;3.70;;
41141;SDS011;63666;52.284;20.890;2023-05-29T05:53:37;6.70;;;3.40;;
41141;SDS011;63666;52.284;20.890;2023-05-29T05:56:13;7.20;;;3.50;;
41141;SDS011;63666;52.284;20.890;2023-05-29T05:58:50;6.70;;;3.20;;
41141;SDS011;63666;52.284;20.890;2023-05-29T06:01:26;6.20;;;3.30;;
41141;SDS011;63666;52.284;20.890;2023-05-29T06:04:03;6.60;;;3.20;;
41141;SDS011;63666;52.284;20.890;2023-05-29T06:06:37;7.10;;;3.20;;
41141;SDS011;63666;52.284;20.890;2023-05-29T06:09:16;7.80;;;3.10;;
41141;SDS011;63666;52.284;20.890;2023-05-29T06:11:52;7.70;;;2.90;;
41141;SDS011;63666;52.284;20.890;2023-05-29T06:14:27;5.90;;;2.70;;
41141;SDS011;63666;52.284;20.890;2023-05-29T06:17:03;5.50;;;2.70;;
41141;SDS011;63666;52.284;20.890;2023-05-29T06:19:38;6.60;;;2.50;;
41141;SDS011;63666;52.284;20.890;2023-05-29T06:22:15;6.30;;;2.50;;
41141;SDS011;63666;52.284;20.890;2023-05-29T06:24:49;5.90;;;2.50;;
41141;SDS011;63666;52.284;20.890;2023-05-29T06:27:25;6.20;;;2.70;;
41141;SDS011;63666;52.284;20.890;2023-05-29T06:30:01;6.90;;;2.50;;
41141;SDS011;63666;52.284;20.890;2023-05-29T06:32:39;6.70;;;2.80;;
41141;SDS011;63666;52.284;20.890;2023-05-29T06:35:13;5.50;;;2.60;;
41141;SDS011;63666;52.284;20.890;2023-05-29T06:37:50;6.00;;;2.40;;
41141;SDS011;63666;52.284;20.890;2023-05-29T06:40:26;5.00;;;2.50;;
41141;SDS011;63666;52.284;20.890;2023-05-29T06:43:01;6.40;;;2.50;;
41141;SDS011;63666;52.284;20.890;2023-05-29T06:45:37;5.70;;;2.30;;
41141;SDS011;63666;52.284;20.890;2023-05-29T06:48:14;5.60;;;2.50;;
41141;SDS011;63666;52.284;20.890;2023-05-29T06:50:54;5.40;;;2.60;;
41141;SDS011;63666;52.284;20.890;2023-05-29T06:53:29;5.70;;;2.80;;
41141;SDS011;63666;52.284;20.890;2023-05-29T06:56:04;5.30;;;2.40;;
41141;SDS011;63666;52.284;20.890;2023-05-29T06:58:41;4.90;;;2.10;;
41141;SDS011;63666;52.284;20.890;2023-05-29T07:01:17;5.40;;;2.40;;
41141;SDS011;63666;52.284;20.890;2023-05-29T07:03:57;5.80;;;2.30;;
41141;SDS011;63666;52.284;20.890;2023-05-29T07:06:34;4.60;;;2.40;;
41141;SDS011;63666;52.284;20.890;2023-05-29T07:09:12;5.30;;;2.30;;
41141;SDS011;63666;52.284;20.890;2023-05-29T07:11:48;5.00;;;2.00;;
41141;SDS011;63666;52.284;20.890;2023-05-29T07:14:24;5.60;;;2.20;;
41141;SDS011;63666;52.284;20.890;2023-05-29T07:16:59;5.50;;;2.40;;
41141;SDS011;63666;52.284;20.890;2023-05-29T07:19:35;5.90;;;2.40;;
41141;SDS011;63666;52.284;20.890;2023-05-29T07:22:11;4.50;;;2.00;;
41141;SDS011;63666;52.284;20.890;2023-05-29T07:24:48;5.50;;;2.30;;
41141;SDS011;63666;52.284;20.890;2023-05-29T07:27:24;5.80;;;2.40;;
41141;SDS011;63666;52.284;20.890;2023-05-29T07:29:58;4.50;;;2.00;;
41141;SDS011;63666;52.284;20.890;2023-05-29T07:32:31;5.10;;;2.00;;
41141;SDS011;63666;52.284;20.890;2023-05-29T07:35:06;4.50;;;2.20;;
41141;SDS011;63666;52.284;20.890;2023-05-29T07:37:40;4.60;;;2.20;;
41141;SDS011;63666;52.284;20.890;2023-05-29T07:40:15;4.80;;;2.10;;
41141;SDS011;63666;52.284;20.890;2023-05-29T07:42:51;5.40;;;2.10;;
41141;SDS011;63666;52.284;20.890;2023-05-29T07:45:26;5.10;;;2.10;;
41141;SDS011;63666;52.284;20.890;2023-05-29T07:48:00;5.50;;;2.20;;
41141;SDS011;63666;52.284;20.890;2023-05-29T07:50:35;5.60;;;2.20;;
41141;SDS011;63666;52.284;20.890;2023-05-29T07:53:11;6.60;;;2.30;;
41141;SDS011;63666;52.284;20.890;2023-05-29T07:55:50;7.20;;;2.90;;
41141;SDS011;63666;52.284;20.890;2023-05-29T07:58:26;6.30;;;2.70;;
41141;SDS011;63666;52.284;20.890;2023-05-29T08:00:59;5.60;;;2.50;;
41141;SDS011;63666;52.284;20.890;2023-05-29T08:03:33;6.10;;;2.40;;
41141;SDS011;63666;52.284;20.890;2023-05-29T08:06:08;5.70;;;2.50;;
41141;SDS011;63666;52.284;20.890;2023-05-29T08:08:46;6.60;;;2.80;;
41141;SDS011;63666;52.284;20.890;2023-05-29T08:11:20;6.30;;;2.40;;
41141;SDS011;63666;52.284;20.890;2023-05-29T08:13:55;7.50;;;2.80;;
41141;SDS011;63666;52.284;20.890;2023-05-29T08:16:31;6.80;;;2.50;;
41141;SDS011;63666;52.284;20.890;2023-05-29T08:19:06;6.10;;;2.50;;
41141;SDS011;63666;52.284;20.890;2023-05-29T08:21:39;5.10;;;2.30;;
41141;SDS011;63666;52.284;20.890;2023-05-29T08:24:13;5.70;;;2.50;;
41141;SDS011;63666;52.284;20.890;2023-05-29T08:26:49;4.80;;;2.10;;
41141;SDS011;63666;52.284;20.890;2023-05-29T08:29:23;5.20;;;2.20;;
41141;SDS011;63666;52.284;20.890;2023-05-29T08:31:59;5.70;;;2.40;;
41141;SDS011;63666;52.284;20.890;2023-05-29T08:34:34;6.10;;;2.40;;
41141;SDS011;63666;52.284;20.890;2023-05-29T08:37:07;5.40;;;2.30;;
41141;SDS011;63666;52.284;20.890;2023-05-29T08:39:42;5.60;;;2.30;;
41141;SDS011;63666;52.284;20.890;2023-05-29T08:42:20;5.30;;;2.30;;
41141;SDS011;63666;52.284;20.890;2023-05-29T08:45:00;4.90;;;2.10;;
41141;SDS011;63666;52.284;20.890;2023-05-29T08:47:37;5.90;;;2.40;;
41141;SDS011;63666;52.284;20.890;2023-05-29T08:50:20;5.50;;;2.20;;
41141;SDS011;63666;52.284;20.890;2023-05-29T08:52:58;5.40;;;1.90;;
41141;SDS011;63666;52.284;20.890;2023-05-29T08:55:37;5.60;;;2.10;;
41141;SDS011;63666;52.284;20.890;2023-05-29T08:58:13;5.00;;;2.20;;
41141;SDS011;63666;52.284;20.890;2023-05-29T09:00:52;4.80;;;2.10;;
41141;SDS011;63666;52.284;20.890;2023-05-29T09:03:28;4.70;;;2.10;;
41141;SDS011;63666;52.284;20.890;2023-05-29T09:06:08;4.60;;;2.20;;
41141;SDS011;63666;52.284;20.890;2023-05-29T09:12:29;5.00;;;1.90;;
41141;SDS011;63666;52.284;20.890;2023-05-29T09:15:22;4.50;;;1.80;;
41141;SDS011;63666;52.284;20.890;2023-05-29T09:17:57;4.40;;;1.90;;
41141;SDS011;63666;52.284;20.890;2023-05-29T09:20:31;4.50;;;1.80;;
41141;SDS011;63666;52.284;20.890;2023-05-29T09:23:08;4.50;;;1.90;;
41141;SDS011;63666;52.284;20.890;2023-05-29T09:25:43;4.20;;;1.90;;
41141;SDS011;63666;52.284;20.890;2023-05-29T09:28:19;4.70;;;1.80;;
41141;SDS011;63666;52.284;20.890;2023-05-29T09:30:57;5.30;;;2.00;;
41141;SDS011;63666;52.284;20.890;2023-05-29T09:33:31;4.00;;;1.80;;
41141;SDS011;63666;52.284;20.890;2023-05-29T09:36:06;4.80;;;1.90;;
41141;SDS011;63666;52.284;20.890;2023-05-29T09:38:53;5.30;;;1.80;;
41141;SDS011;63666;52.284;20.890;2023-05-29T09:41:44;4.30;;;1.70;;
41141;SDS011;63666;52.284;20.890;2023-05-29T09:44:21;4.60;;;1.90;;
41141;SDS011;63666;52.284;20.890;2023-05-29T09:46:59;4.70;;;1.90;;
41141;SDS011;63666;52.284;20.890;2023-05-29T09:49:33;4.70;;;1.80;;
41141;SDS011;63666;52.284;20.890;2023-05-29T09:52:09;4.30;;;1.70;;
41141;SDS011;63666;52.284;20.890;2023-05-29T09:54:46;4.70;;;1.90;;
41141;SDS011;63666;52.284;20.890;2023-05-29T09:57:19;4.30;;;1.80;;
41141;SDS011;63666;52.284;20.890;2023-05-29T09:59:54;4.10;;;1.70;;
41141;SDS011;63666;52.284;20.890;2023-05-29T10:02:28;4.50;;;1.80;;
41141;SDS011;63666;52.284;20.890;2023-05-29T10:05:01;4.40;;;1.90;;
41141;SDS011;63666;52.284;20.890;2023-05-29T10:07:36;4.50;;;1.90;;
41141;SDS011;63666;52.284;20.890;2023-05-29T10:10:12;3.60;;;1.60;;
41141;SDS011;63666;52.284;20.890;2023-05-29T10:12:49;5.00;;;1.60;;
41141;SDS011;63666;52.284;20.890;2023-05-29T10:15:24;4.10;;;2.00;;
41141;SDS011;63666;52.284;20.890;2023-05-29T10:18:03;4.10;;;1.50;;
41141;SDS011;63666;52.284;20.890;2023-05-29T10:20:41;4.00;;;1.60;;
41141;SDS011;63666;52.284;20.890;2023-05-29T10:23:17;4.80;;;1.70;;
41141;SDS011;63666;52.284;20.890;2023-05-29T10:25:57;4.40;;;1.70;;
41141;SDS011;63666;52.284;20.890;2023-05-29T10:28:38;4.20;;;1.70;;
41141;SDS011;63666;52.284;20.890;2023-05-29T10:31:18;4.10;;;1.80;;
41141;SDS011;63666;52.284;20.890;2023-05-29T10:34:07;4.20;;;1.70;;
41141;SDS011;63666;52.284;20.890;2023-05-29T10:36:49;4.60;;;1.70;;
41141;SDS011;63666;52.284;20.890;2023-05-29T10:39:26;4.40;;;1.60;;
41141;SDS011;63666;52.284;20.890;2023-05-29T10:42:02;3.90;;;1.70;;
41141;SDS011;63666;52.284;20.890;2023-05-29T10:44:40;3.70;;;1.50;;
41141;SDS011;63666;52.284;20.890;2023-05-29T10:47:13;4.60;;;1.70;;
41141;SDS011;63666;52.284;20.890;2023-05-29T10:50:00;4.40;;;1.50;;
41141;SDS011;63666;52.284;20.890;2023-05-29T10:52:34;4.80;;;1.60;;
41141;SDS011;63666;52.284;20.890;2023-05-29T10:55:11;3.70;;;1.50;;
41141;SDS011;63666;52.284;20.890;2023-05-29T10:57:48;4.00;;;1.70;;
41141;SDS011;63666;52.284;20.890;2023-05-29T11:00:24;4.00;;;1.60;;
41141;SDS011;63666;52.284;20.890;2023-05-29T11:02:58;3.70;;;1.40;;
41141;SDS011;63666;52.284;20.890;2023-05-29T11:05:59;3.80;;;1.60;;
41141;SDS011;63666;52.284;20.890;2023-05-29T11:08:42;3.70;;;1.60;;
41141;SDS011;63666;52.284;20.890;2023-05-29T11:11:30;4.20;;;1.40;;
41141;SDS011;63666;52.284;20.890;2023-05-29T11:14:07;3.40;;;1.40;;
41141;SDS011;63666;52.284;20.890;2023-05-29T11:16:42;3.90;;;1.50;;
41141;SDS011;63666;52.284;20.890;2023-05-29T11:19:16;3.20;;;1.50;;
41141;SDS011;63666;52.284;20.890;2023-05-29T11:22:03;4.40;;;1.50;;
41141;SDS011;63666;52.284;20.890;2023-05-29T11:24:42;3.70;;;1.50;;
41141;SDS011;63666;52.284;20.890;2023-05-29T11:27:18;3.50;;;1.60;;
41141;SDS011;63666;52.284;20.890;2023-05-29T11:29:51;4.30;;;1.70;;
41141;SDS011;63666;52.284;20.890;2023-05-29T11:32:28;3.40;;;1.50;;
41141;SDS011;63666;52.284;20.890;2023-05-29T11:35:07;3.80;;;1.40;;
41141;SDS011;63666;52.284;20.890;2023-05-29T11:37:45;4.00;;;1.60;;
41141;SDS011;63666;52.284;20.890;2023-05-29T11:40:19;3.90;;;1.60;;
41141;SDS011;63666;52.284;20.890;2023-05-29T11:42:52;3.90;;;1.60;;
41141;SDS011;63666;52.284;20.890;2023-05-29T11:45:25;3.30;;;1.40;;
41141;SDS011;63666;52.284;20.890;2023-05-29T11:48:00;3.60;;;1.40;;
41141;SDS011;63666;52.284;20.890;2023-05-29T11:50:35;3.30;;;1.40;;
41141;SDS011;63666;52.284;20.890;2023-05-29T11:53:09;4.40;;;1.40;;
41141;SDS011;63666;52.284;20.890;2023-05-29T11:55:44;3.60;;;1.50;;
41141;SDS011;63666;52.284;20.890;2023-05-29T11:58:17;3.30;;;1.40;;
41141;SDS011;63666;52.284;20.890;2023-05-29T12:00:51;3.50;;;1.50;;
41141;SDS011;63666;52.284;20.890;2023-05-29T12:03:24;2.90;;;1.30;;
41141;SDS011;63666;52.284;20.890;2023-05-29T12:06:02;3.30;;;1.30;;
41141;SDS011;63666;52.284;20.890;2023-05-29T12:08:37;3.70;;;1.30;;
41141;SDS011;63666;52.284;20.890;2023-05-29T12:11:14;3.50;;;1.40;;
41141;SDS011;63666;52.284;20.890;2023-05-29T12:14:01;3.70;;;1.40;;
41141;SDS011;63666;52.284;20.890;2023-05-29T12:16:35;3.60;;;1.60;;
41141;SDS011;63666;52.284;20.890;2023-05-29T12:19:09;3.50;;;1.30;;
41141;SDS011;63666;52.284;20.890;2023-05-29T12:21:43;2.60;;;1.20;;
41141;SDS011;63666;52.284;20.890;2023-05-29T12:24:18;3.20;;;1.30;;
41141;SDS011;63666;52.284;20.890;2023-05-29T12:27:06;2.90;;;1.20;;
41141;SDS011;63666;52.284;20.890;2023-05-29T12:29:40;2.90;;;1.40;;
41141;SDS011;63666;52.284;20.890;2023-05-29T12:32:15;2.90;;;1.20;;
41141;SDS011;63666;52.284;20.890;2023-05-29T12:34:52;3.50;;;1.30;;
41141;SDS011;63666;52.284;20.890;2023-05-29T12:37:31;3.40;;;1.50;;
41141;SDS011;63666;52.284;20.890;2023-05-29T12:40:15;3.70;;;1.20;;
41141;SDS011;63666;52.284;20.890;2023-05-29T12:42:55;3.10;;;1.30;;
41141;SDS011;63666;52.284;20.890;2023-05-29T12:45:30;3.40;;;1.40;;
41141;SDS011;63666;52.284;20.890;2023-05-29T12:48:06;3.60;;;1.40;;
41141;SDS011;63666;52.284;20.890;2023-05-29T12:50:41;3.30;;;1.50;;
41141;SDS011;63666;52.284;20.890;2023-05-29T12:53:16;4.00;;;1.30;;
41141;SDS011;63666;52.284;20.890;2023-05-29T12:55:52;3.00;;;1.20;;
41141;SDS011;63666;52.284;20.890;2023-05-29T12:58:27;3.50;;;1.30;;
41141;SDS011;63666;52.284;20.890;2023-05-29T13:01:01;2.70;;;1.20;;
41141;SDS011;63666;52.284;20.890;2023-05-29T13:03:34;4.20;;;1.30;;
41141;SDS011;63666;52.284;20.890;2023-05-29T13:06:09;3.30;;;1.30;;
41141;SDS011;63666;52.284;20.890;2023-05-29T13:08:43;3.10;;;1.50;;
41141;SDS011;63666;52.284;20.890;2023-05-29T13:11:18;3.60;;;1.40;;
41141;SDS011;63666;52.284;20.890;2023-05-29T13:13:53;3.40;;;1.30;;
41141;SDS011;63666;52.284;20.890;2023-05-29T13:16:28;3.80;;;1.50;;
41141;SDS011;63666;52.284;20.890;2023-05-29T13:19:01;2.90;;;1.30;;
41141;SDS011;63666;52.284;20.890;2023-05-29T13:21:36;3.30;;;1.40;;
41141;SDS011;63666;52.284;20.890;2023-05-29T13:24:18;3.40;;;1.30;;
41141;SDS011;63666;52.284;20.890;2023-05-29T13:26:57;3.40;;;1.40;;
41141;SDS011;63666;52.284;20.890;2023-05-29T13:29:31;3.40;;;1.30;;
41141;SDS011;63666;52.284;20.890;2023-05-29T13:32:07;3.00;;;1.30;;
41141;SDS011;63666;52.284;20.890;2023-05-29T13:34:41;3.40;;;1.30;;
41141;SDS011;63666;52.284;20.890;2023-05-29T13:37:15;3.60;;;1.40;;
41141;SDS011;63666;52.284;20.890;2023-05-29T13:39:50;3.70;;;1.30;;
41141;SDS011;63666;52.284;20.890;2023-05-29T13:42:24;4.00;;;1.40;;
41141;SDS011;63666;52.284;20.890;2023-05-29T13:44:57;4.30;;;1.50;;
41141;SDS011;63666;52.284;20.890;2023-05-29T13:47:31;3.80;;;1.30;;
41141;SDS011;63666;52.284;20.890;2023-05-29T13:50:07;4.60;;;1.50;;
41141;SDS011;63666;52.284;20.890;2023-05-29T13:52:41;4.40;;;1.80;;
41141;SDS011;63666;52.284;20.890;2023-05-29T13:55:16;3.60;;;1.60;;
41141;SDS011;63666;52.284;20.890;2023-05-29T13:57:52;5.90;;;1.70;;
41141;SDS011;63666;52.284;20.890;2023-05-29T14:00:31;4.40;;;1.60;;
41141;SDS011;63666;52.284;20.890;2023-05-29T14:03:06;4.90;;;1.60;;
41141;SDS011;63666;52.284;20.890;2023-05-29T14:05:40;3.70;;;1.50;;
41141;SDS011;63666;52.284;20.890;2023-05-29T14:08:15;4.80;;;1.70;;
41141;SDS011;63666;52.284;20.890;2023-05-29T14:10:51;4.00;;;1.60;;
41141;SDS011;63666;52.284;20.890;2023-05-29T14:13:26;3.80;;;1.50;;
41141;SDS011;63666;52.284;20.890;2023-05-29T14:16:01;3.90;;;1.60;;
41141;SDS011;63666;52.284;20.890;2023-05-29T14:18:34;3.70;;;1.40;;
41141;SDS011;63666;52.284;20.890;2023-05-29T14:21:10;4.50;;;1.50;;
41141;SDS011;63666;52.284;20.890;2023-05-29T14:23:46;3.20;;;1.50;;
41141;SDS011;63666;52.284;20.890;2023-05-29T14:26:21;4.40;;;1.80;;
41141;SDS011;63666;52.284;20.890;2023-05-29T14:28:55;4.20;;;1.70;;
41141;SDS011;63666;52.284;20.890;2023-05-29T14:31:43;4.20;;;1.70;;
41141;SDS011;63666;52.284;20.890;2023-05-29T14:34:17;4.10;;;1.60;;
41141;SDS011;63666;52.284;20.890;2023-05-29T14:36:50;3.90;;;1.60;;
41141;SDS011;63666;52.284;20.890;2023-05-29T14:39:24;3.70;;;1.60;;
41141;SDS011;63666;52.284;20.890;2023-05-29T14:41:57;3.80;;;1.60;;
41141;SDS011;63666;52.284;20.890;2023-05-29T14:44:33;3.70;;;1.50;;
41141;SDS011;63666;52.284;20.890;2023-05-29T14:47:08;3.80;;;1.50;;
41141;SDS011;63666;52.284;20.890;2023-05-29T14:49:45;3.90;;;1.70;;
41141;SDS011;63666;52.284;20.890;2023-05-29T14:52:20;3.90;;;1.70;;
41141;SDS011;63666;52.284;20.890;2023-05-29T14:54:54;4.10;;;1.80;;
41141;SDS011;63666;52.284;20.890;2023-05-29T14:57:27;4.90;;;1.80;;
41141;SDS011;63666;52.284;20.890;2023-05-29T15:00:04;4.50;;;1.70;;
41141;SDS011;63666;52.284;20.890;2023-05-29T15:02:39;3.80;;;1.70;;
41141;SDS011;63666;52.284;20.890;2023-05-29T15:05:13;4.60;;;1.70;;
41141;SDS011;63666;52.284;20.890;2023-05-29T15:07:46;3.50;;;1.50;;
41141;SDS011;63666;52.284;20.890;2023-05-29T15:10:20;3.80;;;1.70;;
41141;SDS011;63666;52.284;20.890;2023-05-29T15:12:55;4.40;;;1.50;;
41141;SDS011;63666;52.284;20.890;2023-05-29T15:15:28;4.10;;;1.60;;
41141;SDS011;63666;52.284;20.890;2023-05-29T15:18:17;3.70;;;1.50;;
41141;SDS011;63666;52.284;20.890;2023-05-29T15:20:50;3.20;;;1.40;;
41141;SDS011;63666;52.284;20.890;2023-05-29T15:23:25;3.80;;;1.60;;
41141;SDS011;63666;52.284;20.890;2023-05-29T15:25:58;4.10;;;1.80;;
41141;SDS011;63666;52.284;20.890;2023-05-29T15:28:33;3.60;;;1.50;;
41141;SDS011;63666;52.284;20.890;2023-05-29T15:31:06;3.70;;;1.50;;
41141;SDS011;63666;52.284;20.890;2023-05-29T15:33:39;3.80;;;1.70;;